الصفحة الرئيسية
METAR-TAF:

METAR-TAF

مطار :

Needles Airport

نيدليس, كاليفورنيا, الولايات المتحدة

دائرة عرض: 34-45-58N, خط طول: 114-37-24W, ارتفاع: 300 متر

مراقبة الطقس الحالي

تاريخ ووقت الإصدار 32 دقيقة قبل الساعة 11:56UTC
ريح 8 عقدة من الشمال الغربي
درجة الحرارة 13°درجة مئوية
الرطوبة 38%
ضغط 1022 hPa
الرؤية: 16.1 كم
سماء صافية

METAR: KEED 251156Z AUTO 31008KT 10SM CLR 13/M01 A3018 RMK AO2 SLP204 T01331011 10161 20128 53008

زمن: 04:28 (12:28 UTC)

توقعات

تاريخ ووقت الإصدار 1ساعة و 8 دقيقة قبل الساعة 11:20UTC
التوقعات صالحة من25 الساعة 12 UTC إلى 26 الساعة 12 UTC
ريح 10 عقدة من الغرب/الشمال الغربي
الرؤية: 10 كم
سماء صافية
من 25 الساعة 1400 UTC
ريح 10 عقدة من الشمال تتزايد حتى 20 عقدة
الرؤية: 10 كم
سماء صافية
من 25 الساعة 1700 UTC
ريح 22 عقدة من الشمال/الشمال الشرقي تتزايد حتى 32 عقدة
الرؤية: 10 كم
سماء صافية
من 26 الساعة 0200 UTC
ريح 11 عقدة من الشمال
الرؤية: 10 كم
سماء صافية

TAF: KEED 251120Z 2512/2612 30010KT P6SM SKC FM251400 36010G20KT P6SM SKC FM251700 02022G32KT P6SM SKC FM260200 35011KT P6SM SKC

أرصاد الطقس والتوقعات من أكثر من 4000 مطار (تقارير الطقس للمطار METAR والتنبؤ بالطقس بالمطارTAF).

المحطات المتاحة هي النقط الصفراء والحمراء على الخريطة.

حرك المؤشر فوق النقطة لمعرفة اسم المحطة.

ثم انقر لمعرفة أرصاد وتوقعات الطقس.

لتغيير الخارطة: اضغط على الأزرار الخضراء مع رمز الصليب الأسود للتكبير. على الزر الأخضر مع شرطة للتصغير، أو على الأسهم الخضراء للخرائط المجاورة.


METAR-TAF: